Airport View

Enter AWOS ICAO identifier for current METAR.

ex. KFNL

KGOP 210035Z AUTO 14009G16KT 10SM CLR 30/21 A2995 RMK AO2

21 Sep 2019 00:54

Frequency: 119.725

Phone: 254-865-6742

Other Area AWOS: KHLR - KILE - KGRK - KMNZ

TAF KGRK 210000Z 2100/2206 14015G25KT 9999 SCT070 QNH2988INS BECMG 2102/2103 14012KT 9999 FEW020 BKN050 QNH3000INS BECMG 2104/2105 14009KT 9999 BKN020 OVC030 QNH3004INS BECMG 2109/2110 14009KT 9999 BKN010 OVC020 QNH3000INS BECMG 2114/2115 14012G18KT 8000 -SHRA SCT040 BKN050 QNH2998INS TEMPO 2115/2120 4800 -TSRA BKN040CB OVC050 BECMG 2123/2124 14012KT 9999 NSW SCT050 BKN060 QNH2999INS BECMG 2202/2203 14009KT 9999 FEW030 SCT040 QNH3005INS TX34/2121Z TN23/2112Z